Time;durP1;ratioP1;P1;durP2;ratioP2;P2;SDS_P1;SDS_P2;PMS_P1;PMS_P2;Temp;Humidity;BMP_temperature;BMP_pressure;BME280_temperature;BME280_humidity;BME280_pressure;Samples;Min_cycle;Max_cycle;Signal;HPM_P1;HPM_P2
2022/10/27 00:01:12;;;;;;;1.33;0.50;;;26.90;99.90;;;;;;4965375;28;20204;-79
2022/10/27 00:03:43;;;;;;;0.75;0.40;;;27.00;99.90;;;;;;4965105;28;20210;-79
2022/10/27 00:06:14;;;;;;;1.10;0.32;;;27.10;99.90;;;;;;4961851;28;20220;-77
2022/10/27 00:08:45;;;;;;;0.30;0.30;;;27.10;99.90;;;;;;4962280;28;20195;-79
2022/10/27 00:11:16;;;;;;;0.30;0.20;;;27.30;99.90;;;;;;4961045;28;20223;-81
2022/10/27 00:13:48;;;;;;;1.10;0.40;;;27.40;99.90;;;;;;4958906;28;20234;-76
2022/10/27 00:16:20;;;;;;;1.05;0.50;;;27.50;99.90;;;;;;4960550;28;20188;-79
2022/10/27 00:18:51;;;;;;;0.50;0.30;;;27.60;99.90;;;;;;4958843;28;20191;-79
2022/10/27 00:21:23;;;;;;;0.95;0.40;;;27.70;99.90;;;;;;4964830;28;20192;-80
2022/10/27 00:23:54;;;;;;;0.60;0.30;;;27.70;99.90;;;;;;4957157;28;20197;-79
2022/10/27 00:26:25;;;;;;;0.65;0.30;;;27.70;99.90;;;;;;4962487;28;20195;-82
2022/10/27 00:28:56;;;;;;;1.25;0.60;;;27.70;99.90;;;;;;4962058;28;20664;-79
2022/10/27 00:31:28;;;;;;;0.35;0.30;;;27.70;99.90;;;;;;4961457;28;20219;-81
2022/10/27 00:33:59;;;;;;;1.55;0.30;;;27.80;99.90;;;;;;4960964;28;20597;-84
2022/10/27 00:36:30;;;;;;;2.90;0.40;;;27.70;99.90;;;;;;4955187;28;20227;-81
2022/10/27 00:39:02;;;;;;;0.40;0.20;;;27.50;99.90;;;;;;4960982;28;20196;-80
2022/10/27 00:41:35;;;;;;;2.97;0.43;;;27.70;99.90;;;;;;4965717;28;20189;-79
2022/10/27 00:44:20;;;;;;;0.25;0.25;;;27.80;99.90;;;;;;4964222;28;20192;-77
2022/10/27 00:46:53;;;;;;;0.75;0.30;;;27.90;99.90;;;;;;4964300;28;20206;-72
2022/10/27 00:49:28;;;;;;;0.30;0.30;;;27.70;99.90;;;;;;4966432;28;20185;-78
2022/10/27 00:52:02;;;;;;;7.03;1.02;;;27.60;99.90;;;;;;4960500;28;20584;-82
2022/10/27 00:54:38;;;;;;;1.17;0.60;;;27.70;99.90;;;;;;4961023;28;20212;-77
2022/10/27 00:57:11;;;;;;;0.55;0.22;;;27.80;99.90;;;;;;4964081;28;20660;-77
2022/10/27 00:59:42;;;;;;;0.75;0.40;;;28.00;99.90;;;;;;4965459;28;20271;-77
2022/10/27 01:02:16;;;;;;;1.20;0.40;;;27.90;99.90;;;;;;4963600;28;20558;-79
2022/10/27 01:04:52;;;;;;;1.73;0.40;;;28.00;99.90;;;;;;4962026;28;20244;-76
2022/10/27 01:07:24;;;;;;;0.50;0.28;;;27.80;99.90;;;;;;4961044;28;20185;-79
2022/10/27 01:09:54;;;;;;;0.65;0.22;;;27.90;99.90;;;;;;4963142;28;20192;-78
2022/10/27 01:12:25;;;;;;;0.50;0.30;;;27.80;99.90;;;;;;4953503;28;20649;-76
2022/10/27 01:14:56;;;;;;;0.80;0.35;;;27.60;99.90;;;;;;4959786;28;20219;-79
2022/10/27 01:17:45;;;;;;;1.88;0.50;;;27.40;99.90;;;;;;4954250;28;20189;-78
2022/10/27 01:20:46;;;;;;;2.08;0.80;;;27.10;99.90;;;;;;4963478;28;20663;-78
2022/10/27 01:23:31;;;;;;;1.50;0.45;;;26.90;99.90;;;;;;4952311;28;20572;-78
2022/10/27 01:26:42;;;;;;;2.50;0.40;;;26.80;99.90;;;;;;4945688;28;20200;-77
2022/10/27 01:29:40;;;;;;;0.32;0.32;;;26.70;99.90;;;;;;4946456;28;20204;-76
2022/10/27 01:32:27;;;;;;;0.28;0.25;;;26.50;99.90;;;;;;4942122;28;20219;-80
2022/10/27 01:35:04;;;;;;;2.92;0.45;;;26.50;99.90;;;;;;4946043;28;20228;-79
2022/10/27 01:37:41;;;;;;;3.38;0.50;;;26.00;99.90;;;;;;4945133;28;20709;-80
2022/10/27 01:40:18;;;;;;;1.08;0.38;;;24.40;99.90;;;;;;4948004;28;20287;-78
2022/10/27 01:42:51;;;;;;;2.83;0.32;;;23.10;99.90;;;;;;4954365;28;20568;-75
2022/10/27 01:45:26;;;;;;;0.73;0.40;;;22.30;99.90;;;;;;4964853;28;20189;-77
2022/10/27 01:48:00;;;;;;;1.83;0.60;;;21.80;99.90;;;;;;4960563;28;20215;-77
2022/10/27 01:50:33;;;;;;;3.00;0.70;;;21.50;99.90;;;;;;4959548;28;20190;-76
2022/10/27 01:53:04;;;;;;;3.15;0.55;;;21.30;99.90;;;;;;4964043;28;20195;-77
2022/10/27 01:55:45;;;;;;;2.97;0.80;;;21.30;99.90;;;;;;4961749;28;20210;-72
2022/10/27 01:58:40;;;;;;;0.65;0.57;;;21.20;99.90;;;;;;4959242;28;20254;-76
2022/10/27 02:01:23;;;;;;;2.58;0.73;;;21.10;99.90;;;;;;4951575;28;20283;-78
2022/10/27 02:04:01;;;;;;;2.75;0.98;;;21.20;99.90;;;;;;4960167;28;20192;-76
2022/10/27 02:06:36;;;;;;;2.60;0.95;;;21.20;99.90;;;;;;4959951;28;20195;-77
2022/10/27 02:09:14;;;;;;;3.45;0.68;;;21.30;99.90;;;;;;4944055;28;20287;-76
2022/10/27 02:11:50;;;;;;;2.65;0.80;;;21.50;99.90;;;;;;4961978;28;20189;-75
2022/10/27 02:14:21;;;;;;;1.17;0.60;;;21.80;99.90;;;;;;4955899;28;20227;-74
2022/10/27 02:16:55;;;;;;;1.00;0.68;;;22.10;99.90;;;;;;4961781;28;20286;-75
2022/10/27 02:19:33;;;;;;;2.13;0.65;;;22.40;99.90;;;;;;4956268;28;20201;-75
2022/10/27 02:22:06;;;;;;;1.88;0.50;;;22.60;99.90;;;;;;4958333;28;20197;-74
2022/10/27 02:24:37;;;;;;;1.10;0.65;;;22.80;99.90;;;;;;4967367;28;20199;-77
2022/10/27 02:27:14;;;;;;;1.75;0.60;;;22.90;99.90;;;;;;4946876;28;20196;-74
2022/10/27 02:29:47;;;;;;;0.65;0.40;;;22.90;99.90;;;;;;4967778;28;20197;-77
2022/10/27 02:32:20;;;;;;;0.55;0.50;;;22.90;99.90;;;;;;4966751;28;20223;-75
2022/10/27 02:34:54;;;;;;;2.00;0.70;;;22.80;99.90;;;;;;4965484;28;20213;-77
2022/10/27 02:37:31;;;;;;;2.63;0.63;;;22.90;99.90;;;;;;4968056;28;20234;-77
2022/10/27 02:40:02;;;;;;;1.13;0.65;;;23.10;99.90;;;;;;4963171;28;20247;-77
2022/10/27 02:42:32;;;;;;;1.90;0.75;;;23.30;99.90;;;;;;4952869;28;20204;-75
2022/10/27 02:45:03;;;;;;;2.42;0.75;;;23.40;99.90;;;;;;4949629;28;20209;-78
2022/10/27 02:47:34;;;;;;;1.20;0.75;;;23.60;99.90;;;;;;4947749;28;20201;-78
2022/10/27 02:50:07;;;;;;;2.45;0.95;;;23.70;99.90;;;;;;4950053;28;20205;-81
2022/10/27 02:52:38;;;;;;;2.10;0.63;;;23.70;99.90;;;;;;4959988;28;20203;-77
2022/10/27 02:55:09;;;;;;;1.48;0.60;;;23.80;99.90;;;;;;4946415;28;20229;-79
2022/10/27 02:57:40;;;;;;;1.33;0.70;;;23.80;99.90;;;;;;4945820;28;20207;-74
2022/10/27 03:00:12;;;;;;;0.85;0.57;;;24.00;99.90;;;;;;4953526;28;20199;-77
2022/10/27 03:02:42;;;;;;;0.60;0.50;;;24.10;99.90;;;;;;4953765;28;20289;-76
2022/10/27 03:05:15;;;;;;;1.38;0.60;;;24.20;99.90;;;;;;4949270;28;20196;-78
2022/10/27 03:07:46;;;;;;;1.83;0.65;;;24.30;99.90;;;;;;4959512;28;20204;-78
2022/10/27 03:10:17;;;;;;;2.60;1.08;;;24.20;99.90;;;;;;4954621;28;20212;-77
2022/10/27 03:12:49;;;;;;;1.52;0.60;;;24.20;99.90;;;;;;4954098;28;20208;-76
2022/10/27 03:15:21;;;;;;;1.52;0.50;;;24.10;99.90;;;;;;4943107;28;20217;-75
2022/10/27 03:17:52;;;;;;;3.35;0.60;;;24.10;99.90;;;;;;4953654;28;20333;-76
2022/10/27 03:20:24;;;;;;;4.35;1.15;;;24.10;99.90;;;;;;4965516;28;20191;-77
2022/10/27 03:22:56;;;;;;;3.20;0.43;;;24.00;99.90;;;;;;4950159;28;20582;-77
2022/10/27 03:25:27;;;;;;;1.85;0.50;;;23.90;99.90;;;;;;4964490;28;20532;-75
2022/10/27 03:27:58;;;;;;;1.55;0.65;;;23.80;99.90;;;;;;4962841;28;20284;-74
2022/10/27 03:30:29;;;;;;;4.82;1.13;;;23.70;99.90;;;;;;4952770;28;20200;-77
2022/10/27 03:33:00;;;;;;;0.85;0.50;;;23.70;99.90;;;;;;4953060;28;20240;-78
2022/10/27 03:35:33;;;;;;;2.60;0.50;;;23.60;99.90;;;;;;4957874;28;20510;-76
2022/10/27 03:38:04;;;;;;;4.43;3.65;;;23.50;99.90;;;;;;4960500;28;20257;-75
2022/10/27 03:40:35;;;;;;;1.45;1.33;;;23.40;99.90;;;;;;4945711;28;20197;-76
2022/10/27 03:43:06;;;;;;;1.95;1.23;;;23.30;99.90;;;;;;4949261;28;20205;-77
2022/10/27 03:45:36;;;;;;;1.35;0.70;;;23.20;99.90;;;;;;4950403;28;20208;-80
2022/10/27 03:48:10;;;;;;;1.30;0.70;;;23.10;99.90;;;;;;4953314;28;20232;-79
2022/10/27 03:50:46;;;;;;;1.08;0.70;;;23.10;99.90;;;;;;4954085;28;20549;-77
2022/10/27 03:53:18;;;;;;;0.20;0.20;;;23.10;99.90;;;;;;4962532;28;20189;-77
2022/10/27 03:55:50;;;;;;;2.25;0.90;;;23.10;99.90;;;;;;4950737;28;20221;-77
2022/10/27 03:58:21;;;;;;;2.17;0.80;;;23.20;99.90;;;;;;4942963;28;20197;-77
2022/10/27 04:00:53;;;;;;;2.47;0.77;;;23.30;99.90;;;;;;4954614;28;20211;-75
2022/10/27 04:03:24;;;;;;;1.60;0.40;;;23.40;99.90;;;;;;4951032;28;20205;-78
2022/10/27 04:05:56;;;;;;;0.95;0.60;;;23.40;99.90;;;;;;4959001;28;20244;-78
2022/10/27 04:08:27;;;;;;;1.42;0.50;;;23.40;99.90;;;;;;4960912;28;20188;-78
2022/10/27 04:10:58;;;;;;;1.33;0.40;;;23.40;99.90;;;;;;4953910;28;20202;-79
2022/10/27 04:13:29;;;;;;;1.75;0.50;;;23.50;99.90;;;;;;4958458;28;20281;-76
2022/10/27 04:16:02;;;;;;;0.98;0.50;;;23.60;99.90;;;;;;4963444;28;20213;-78
2022/10/27 04:18:33;;;;;;;0.60;0.40;;;23.60;99.90;;;;;;4961553;28;20276;-78
2022/10/27 04:21:07;;;;;;;0.85;0.30;;;23.60;99.90;;;;;;4963093;28;20185;-81
2022/10/27 04:23:38;;;;;;;2.25;0.50;;;23.60;99.90;;;;;;4947140;28;20220;-78
2022/10/27 04:26:09;;;;;;;0.85;0.40;;;23.60;99.90;;;;;;4962210;28;20212;-81
2022/10/27 04:28:39;;;;;;;1.05;0.40;;;23.60;99.90;;;;;;4961054;28;20196;-78
2022/10/27 04:31:10;;;;;;;2.42;0.75;;;23.50;99.90;;;;;;4951380;28;20197;-76
2022/10/27 04:33:42;;;;;;;1.85;0.70;;;23.60;99.90;;;;;;4956398;28;20225;-76
2022/10/27 04:36:14;;;;;;;0.57;0.30;;;23.60;99.90;;;;;;4958996;28;20236;-76
2022/10/27 04:38:45;;;;;;;0.38;0.35;;;23.60;99.90;;;;;;4953232;28;20199;-79
2022/10/27 04:41:16;;;;;;;0.70;0.30;;;23.70;99.90;;;;;;4945111;28;20205;-73
2022/10/27 04:43:49;;;;;;;0.93;0.43;;;23.70;99.90;;;;;;4950737;28;20688;-78
2022/10/27 04:46:20;;;;;;;0.60;0.30;;;23.70;99.90;;;;;;4954541;28;20755;-78
2022/10/27 04:48:51;;;;;;;1.25;0.45;;;23.80;99.90;;;;;;4961232;28;20200;-74
2022/10/27 04:51:24;;;;;;;0.57;0.45;;;23.80;99.90;;;;;;4961822;28;20203;-75
2022/10/27 04:53:55;;;;;;;0.40;0.40;;;23.80;99.90;;;;;;4949039;28;20212;-78
2022/10/27 04:56:25;;;;;;;2.17;0.60;;;23.80;99.90;;;;;;4956427;28;20196;-80
2022/10/27 04:58:56;;;;;;;0.98;0.30;;;23.80;99.90;;;;;;4957761;28;20197;-76
2022/10/27 05:01:27;;;;;;;2.63;0.70;;;23.80;99.90;;;;;;4950026;28;20196;-76
2022/10/27 05:03:58;;;;;;;0.35;0.30;;;23.80;99.90;;;;;;4944788;29;20208;-80
2022/10/27 05:06:31;;;;;;;1.38;0.40;;;23.80;99.90;;;;;;4945170;28;20199;-77
2022/10/27 05:09:01;;;;;;;0.50;0.30;;;23.80;99.90;;;;;;4949852;29;20209;-77
2022/10/27 05:11:32;;;;;;;0.60;0.40;;;23.80;99.90;;;;;;4937122;28;20206;-78
2022/10/27 05:14:03;;;;;;;0.35;0.35;;;23.80;99.90;;;;;;4936198;29;20666;-79
2022/10/27 05:16:34;;;;;;;1.40;0.40;;;23.80;99.90;;;;;;4936665;29;20227;-79
2022/10/27 05:19:05;;;;;;;0.40;0.40;;;23.80;99.90;;;;;;4941226;29;20196;-79
2022/10/27 05:21:37;;;;;;;1.10;0.40;;;23.90;99.90;;;;;;4952667;29;20209;-76
2022/10/27 05:24:08;;;;;;;0.70;0.30;;;23.90;99.90;;;;;;4935943;29;20205;-80
2022/10/27 05:26:39;;;;;;;0.73;0.30;;;24.00;99.90;;;;;;4941975;29;20193;-80
2022/10/27 05:29:10;;;;;;;0.85;0.47;;;24.10;99.90;;;;;;4946043;29;20563;-77
2022/10/27 05:31:41;;;;;;;3.25;0.40;;;24.20;99.90;;;;;;4943330;28;20197;-73
2022/10/27 05:34:11;;;;;;;1.35;0.47;;;24.30;99.90;;;;;;4948820;28;20287;-79
2022/10/27 05:36:44;;;;;;;0.63;0.50;;;24.30;99.90;;;;;;4955165;28;20239;-76
2022/10/27 05:39:15;;;;;;;0.77;0.30;;;24.20;99.90;;;;;;4942975;28;20684;-77
2022/10/27 05:41:45;;;;;;;2.58;0.40;;;24.40;99.90;;;;;;4935704;29;20315;-79
2022/10/27 05:44:17;;;;;;;0.98;0.50;;;24.60;99.90;;;;;;4939844;29;20201;-77
2022/10/27 05:46:48;;;;;;;0.55;0.40;;;24.70;99.90;;;;;;4960730;28;20204;-76
2022/10/27 05:49:32;;;;;;;0.88;0.40;;;24.90;99.90;;;;;;4954179;28;20556;-78
2022/10/27 05:52:19;;;;;;;1.30;0.40;;;25.00;99.90;;;;;;4940475;29;20574;-80
2022/10/27 05:54:52;;;;;;;0.82;0.20;;;25.20;99.90;;;;;;4944299;28;20213;-80
2022/10/27 05:57:24;;;;;;;0.75;0.20;;;25.40;99.90;;;;;;4954615;28;20201;-78
2022/10/27 05:59:55;;;;;;;1.35;0.40;;;25.60;99.90;;;;;;4955577;29;20284;-77
2022/10/27 06:02:26;;;;;;;3.72;0.47;;;25.80;99.90;;;;;;4951728;29;20576;-79
2022/10/27 06:04:57;;;;;;;0.55;0.20;;;25.90;99.90;;;;;;4943150;29;20284;-80
2022/10/27 06:07:30;;;;;;;0.52;0.30;;;26.00;99.90;;;;;;4943289;29;20215;-72
2022/10/27 06:10:04;;;;;;;0.25;0.25;;;26.10;99.90;;;;;;4944281;28;20204;-77
2022/10/27 06:12:37;;;;;;;0.98;0.30;;;26.20;99.90;;;;;;4952492;29;20884;-81
2022/10/27 06:15:12;;;;;;;0.35;0.30;;;26.30;99.90;;;;;;4949210;29;20221;-76
2022/10/27 06:17:43;;;;;;;2.35;0.50;;;26.20;99.90;;;;;;4946170;29;20204;-78
2022/10/27 06:20:14;;;;;;;0.73;0.25;;;26.30;99.90;;;;;;4945892;29;20185;-78
2022/10/27 06:22:48;;;;;;;0.93;0.30;;;26.30;99.90;;;;;;4957945;29;20203;-80
2022/10/27 06:25:19;;;;;;;0.40;0.30;;;26.30;99.90;;;;;;4956710;29;20196;-78
2022/10/27 06:27:50;;;;;;;0.43;0.30;;;26.20;99.90;;;;;;4947586;28;20194;-81
2022/10/27 06:30:21;;;;;;;0.52;0.30;;;26.30;99.90;;;;;;4943638;29;20201;-79
2022/10/27 06:32:52;;;;;;;1.48;0.28;;;26.30;99.90;;;;;;4951393;28;20235;-79
2022/10/27 06:35:22;;;;;;;3.22;0.30;;;26.20;99.90;;;;;;4939245;29;20260;-82
2022/10/27 06:37:55;;;;;;;0.40;0.30;;;26.20;99.90;;;;;;4939161;29;20200;-81
2022/10/27 06:40:26;;;;;;;0.20;0.20;;;26.10;99.90;;;;;;4947267;29;20189;-71
2022/10/27 06:42:56;;;;;;;0.63;0.32;;;26.10;99.90;;;;;;4958212;29;20756;-73
2022/10/27 06:45:27;;;;;;;0.93;0.40;;;26.10;99.90;;;;;;4959892;28;20192;-78
2022/10/27 06:48:02;;;;;;;1.45;0.30;;;26.00;99.90;;;;;;4939090;29;20676;-72
2022/10/27 06:50:33;;;;;;;0.75;0.38;;;26.00;99.90;;;;;;4939033;29;20193;-79
2022/10/27 06:53:06;;;;;;;0.30;0.30;;;25.90;99.90;;;;;;4938854;29;20198;-72
2022/10/27 06:55:37;;;;;;;1.05;0.20;;;25.80;99.90;;;;;;4938513;29;20224;-72
2022/10/27 06:58:08;;;;;;;2.22;0.50;;;25.80;99.90;;;;;;4938844;29;20198;-83
2022/10/27 07:00:39;;;;;;;0.22;0.20;;;25.60;99.90;;;;;;4937685;29;20197;-79
2022/10/27 07:03:14;;;;;;;0.75;0.25;;;25.50;99.90;;;;;;4939723;29;20200;-78
2022/10/27 07:05:44;;;;;;;0.77;0.40;;;25.40;99.90;;;;;;4939451;29;20212;-80
2022/10/27 07:08:17;;;;;;;1.13;0.40;;;25.30;99.90;;;;;;4936492;29;20214;-78
2022/10/27 07:10:48;;;;;;;1.40;0.40;;;25.10;99.90;;;;;;4936588;29;20208;-80
2022/10/27 07:13:19;;;;;;;1.70;0.40;;;24.90;99.90;;;;;;4946308;29;20211;-78
2022/10/27 07:15:49;;;;;;;1.73;0.43;;;24.90;99.90;;;;;;4937061;29;20225;-76
2022/10/27 07:18:20;;;;;;;1.25;0.43;;;24.80;99.90;;;;;;4941414;29;20205;-78
2022/10/27 07:20:52;;;;;;;0.60;0.30;;;24.70;99.90;;;;;;4949094;29;20200;-78
2022/10/27 07:23:25;;;;;;;0.40;0.40;;;24.60;99.90;;;;;;4950466;29;20261;-73
2022/10/27 07:25:56;;;;;;;0.43;0.40;;;24.50;99.90;;;;;;4939510;29;20798;-77
2022/10/27 07:28:26;;;;;;;0.50;0.30;;;24.50;99.90;;;;;;4938465;29;20285;-79
2022/10/27 07:30:58;;;;;;;0.22;0.20;;;24.40;99.90;;;;;;4937644;29;20209;-80
2022/10/27 07:33:28;;;;;;;0.68;0.45;;;24.30;99.90;;;;;;4944981;28;20334;-79
2022/10/27 07:35:59;;;;;;;0.50;0.40;;;24.20;99.90;;;;;;4936215;29;20712;-74
2022/10/27 07:38:32;;;;;;;0.50;0.40;;;24.10;99.90;;;;;;4941183;29;20633;-77
2022/10/27 07:41:03;;;;;;;0.95;0.40;;;24.00;99.90;;;;;;4936048;29;20216;-77
2022/10/27 07:43:35;;;;;;;1.05;0.50;;;24.00;99.90;;;;;;4936193;28;20214;-80
2022/10/27 07:46:06;;;;;;;1.83;0.60;;;23.90;99.90;;;;;;4938218;29;20661;-76
2022/10/27 07:48:37;;;;;;;1.70;0.68;;;23.90;99.90;;;;;;4938420;29;20608;-72
2022/10/27 07:51:08;;;;;;;0.93;0.60;;;23.80;99.90;;;;;;4944939;28;20720;-74
2022/10/27 07:53:41;;;;;;;0.90;0.60;;;23.80;99.90;;;;;;4940253;29;20229;-80
2022/10/27 07:56:11;;;;;;;1.83;0.47;;;23.80;99.90;;;;;;4937818;29;20696;-80
2022/10/27 07:58:42;;;;;;;0.63;0.47;;;23.80;99.90;;;;;;4936860;29;20216;-78
2022/10/27 08:01:13;;;;;;;0.80;0.55;;;23.80;99.90;;;;;;4937346;29;20197;-77
2022/10/27 08:03:44;;;;;;;0.75;0.50;;;23.80;99.90;;;;;;4936033;29;20223;-78
2022/10/27 08:06:14;;;;;;;2.00;0.60;;;23.80;99.90;;;;;;4936653;29;20209;-79
2022/10/27 08:08:47;;;;;;;2.38;0.43;;;23.70;99.90;;;;;;4938213;28;20205;-80
2022/10/27 08:11:18;;;;;;;1.05;0.43;;;23.70;99.90;;;;;;4937120;29;20205;-77
2022/10/27 08:13:48;;;;;;;1.15;0.60;;;23.60;99.90;;;;;;4936966;29;20197;-79
2022/10/27 08:16:19;;;;;;;1.08;0.50;;;23.60;99.90;;;;;;4939875;29;20583;-79
2022/10/27 08:18:50;;;;;;;0.50;0.40;;;23.60;99.90;;;;;;4938436;29;20201;-76
2022/10/27 08:21:21;;;;;;;0.52;0.30;;;23.60;99.90;;;;;;4936801;29;20197;-78
2022/10/27 08:23:53;;;;;;;1.35;0.50;;;23.60;99.90;;;;;;4936842;29;20198;-76
2022/10/27 08:26:24;;;;;;;1.10;0.47;;;23.60;99.90;;;;;;4937409;29;20207;-76
2022/10/27 08:28:55;;;;;;;0.50;0.38;;;23.50;99.90;;;;;;4939939;29;20201;-75
2022/10/27 08:31:25;;;;;;;0.52;0.40;;;23.50;99.90;;;;;;4936787;28;20211;-73
2022/10/27 08:33:56;;;;;;;0.52;0.30;;;23.40;99.90;;;;;;4943512;28;20198;-78
2022/10/27 08:36:27;;;;;;;2.20;0.50;;;23.40;99.90;;;;;;4938703;28;20272;-79
2022/10/27 08:39:00;;;;;;;0.73;0.47;;;23.30;99.90;;;;;;4936277;29;20202;-79
2022/10/27 08:41:37;;;;;;;0.47;0.40;;;23.20;99.90;;;;;;4940978;29;20194;-80
2022/10/27 08:44:23;;;;;;;1.00;0.60;;;23.10;99.90;;;;;;4936598;29;20202;-79
2022/10/27 08:46:56;;;;;;;0.70;0.50;;;23.20;99.90;;;;;;4942500;29;20206;-76
2022/10/27 08:49:40;;;;;;;0.82;0.40;;;23.10;99.90;;;;;;4938275;29;22019;-79
2022/10/27 08:52:18;;;;;;;0.40;0.30;;;23.00;99.90;;;;;;4934969;29;20198;-73
2022/10/27 08:54:54;;;;;;;1.00;0.40;;;22.90;99.90;;;;;;4937266;28;20201;-79
2022/10/27 08:57:28;;;;;;;0.57;0.40;;;22.90;99.90;;;;;;4945091;29;20227;-78
2022/10/27 08:59:59;;;;;;;0.60;0.50;;;22.80;99.90;;;;;;4945169;29;21814;-80
2022/10/27 09:03:16;;;;;;;0.40;0.40;;;22.80;99.90;;;;;;4945145;28;20209;-78
2022/10/27 09:06:01;;;;;;;1.15;0.50;;;22.70;99.90;;;;;;4882909;29;20221;-74
2022/10/27 09:08:41;;;;;;;0.85;0.50;;;22.60;99.90;;;;;;4936625;29;20288;-80
2022/10/27 09:11:25;;;;;;;1.35;0.47;;;22.50;99.90;;;;;;4943315;29;20209;-81
2022/10/27 09:14:17;;;;;;;1.30;0.40;;;22.40;99.90;;;;;;4936729;29;20208;-78
2022/10/27 09:16:51;;;;;;;0.35;0.35;;;22.40;99.90;;;;;;4937238;28;20252;-77
2022/10/27 09:19:27;;;;;;;1.02;0.50;;;22.40;99.90;;;;;;4937181;29;20296;-78
2022/10/27 09:21:59;;;;;;;0.70;0.40;;;22.40;99.90;;;;;;4944975;29;20208;-77
2022/10/27 09:24:33;;;;;;;0.65;0.60;;;22.30;99.90;;;;;;4935939;29;20197;-79
2022/10/27 09:27:07;;;;;;;0.77;0.57;;;22.30;99.90;;;;;;4936279;29;20205;-79
2022/10/27 09:29:40;;;;;;;0.90;0.60;;;22.30;99.90;;;;;;4936262;29;20228;-79
2022/10/27 09:32:19;;;;;;;1.20;0.60;;;22.30;99.90;;;;;;4938508;28;20221;-78
2022/10/27 09:34:56;;;;;;;0.90;0.50;;;22.20;99.90;;;;;;4943044;29;20206;-79
2022/10/27 09:37:29;;;;;;;0.82;0.60;;;22.10;99.90;;;;;;4936732;29;20252;-77
2022/10/27 09:39:59;;;;;;;1.77;0.52;;;22.20;99.90;;;;;;4939908;28;20281;-79
2022/10/27 09:42:35;;;;;;;0.43;0.43;;;22.10;99.90;;;;;;4944519;28;20193;-80
2022/10/27 09:45:15;;;;;;;0.65;0.60;;;22.00;99.90;;;;;;4948005;28;20228;-79
2022/10/27 09:47:49;;;;;;;0.80;0.60;;;22.00;99.90;;;;;;4945601;28;20212;-76
2022/10/27 09:50:23;;;;;;;0.90;0.70;;;21.90;99.90;;;;;;4965861;28;20210;-80
2022/10/27 09:52:56;;;;;;;1.23;0.80;;;21.80;99.90;;;;;;4939643;28;20208;-78
2022/10/27 09:56:09;;;;;;;0.95;0.70;;;21.70;99.90;;;;;;4942793;28;20567;-77
2022/10/27 09:58:55;;;;;;;1.52;0.60;;;21.60;99.90;;;;;;4939683;28;20957;-79
2022/10/27 10:01:30;;;;;;;2.38;0.82;;;21.50;99.90;;;;;;4965165;28;20236;-79
2022/10/27 10:04:08;;;;;;;0.85;0.65;;;21.30;99.90;;;;;;4961572;28;20193;-76
2022/10/27 10:06:41;;;;;;;1.60;0.82;;;21.20;99.90;;;;;;4947398;28;20201;-71
2022/10/27 10:09:25;;;;;;;1.63;0.80;;;21.10;99.90;;;;;;4947418;28;20229;-79
2022/10/27 10:12:25;;;;;;;1.23;0.60;;;20.90;99.90;;;;;;4943628;28;20676;-79
2022/10/27 10:15:24;;;;;;;0.98;0.80;;;20.80;99.90;;;;;;4959094;28;20193;-79
2022/10/27 10:17:59;;;;;;;1.25;0.80;;;20.70;99.90;;;;;;4945941;28;20284;-79
2022/10/27 10:20:40;;;;;;;1.88;0.95;;;20.50;99.90;;;;;;4946005;28;20204;-79
2022/10/27 10:23:22;;;;;;;1.15;0.90;;;20.40;99.90;;;;;;4948736;28;20649;-78
2022/10/27 10:25:56;;;;;;;2.13;1.10;;;20.30;99.90;;;;;;4951230;28;20287;-75
2022/10/27 10:28:36;;;;;;;1.35;0.98;;;20.30;99.90;;;;;;4940416;28;20252;-78
2022/10/27 10:31:13;;;;;;;1.73;1.10;;;20.30;99.90;;;;;;4943802;28;20212;-79
2022/10/27 10:33:47;;;;;;;2.47;1.10;;;20.20;99.90;;;;;;4952660;28;20197;-76
2022/10/27 10:36:30;;;;;;;1.13;0.90;;;20.10;99.90;;;;;;4936750;28;20336;-79
2022/10/27 10:39:02;;;;;;;1.33;1.00;;;20.10;99.90;;;;;;4949964;28;20204;-78
2022/10/27 10:41:33;;;;;;;2.40;1.10;;;20.10;99.90;;;;;;4944941;28;20197;-78
2022/10/27 10:44:17;;;;;;;1.77;1.00;;;20.10;99.90;;;;;;4961084;28;20252;-78
2022/10/27 10:46:56;;;;;;;2.42;1.00;;;20.10;99.90;;;;;;4944637;28;20679;-76
2022/10/27 10:49:39;;;;;;;2.28;1.13;;;20.10;99.90;;;;;;4951607;28;20196;-76
2022/10/27 10:52:20;;;;;;;2.83;1.05;;;20.10;99.90;;;;;;4951506;28;20209;-76
2022/10/27 10:54:54;;;;;;;1.50;0.98;;;20.20;99.90;;;;;;4958742;28;20206;-80
2022/10/27 10:57:31;;;;;;;3.92;1.10;;;20.20;99.90;;;;;;4960623;28;20739;-76
2022/10/27 11:00:09;;;;;;;1.65;0.98;;;20.20;99.90;;;;;;4950540;28;20211;-78
2022/10/27 11:02:45;;;;;;;1.40;0.77;;;20.30;99.90;;;;;;4947460;28;20205;-76
2022/10/27 11:05:20;;;;;;;1.17;0.57;;;20.20;99.90;;;;;;4960621;28;20691;-77
2022/10/27 11:07:54;;;;;;;1.35;0.70;;;20.30;99.90;;;;;;4957245;28;20208;-78
2022/10/27 11:10:27;;;;;;;1.90;0.80;;;20.30;99.90;;;;;;4964785;28;20197;-76
2022/10/27 11:13:03;;;;;;;0.77;0.77;;;20.30;99.90;;;;;;4945724;28;20197;-77
2022/10/27 11:15:37;;;;;;;0.88;0.60;;;20.30;99.90;;;;;;4962635;28;20192;-79
2022/10/27 11:18:17;;;;;;;1.95;0.60;;;20.30;99.90;;;;;;4951730;28;20217;-79
2022/10/27 11:20:51;;;;;;;0.70;0.60;;;20.30;99.90;;;;;;4957630;28;20343;-78
2022/10/27 11:23:27;;;;;;;1.23;0.73;;;20.30;99.90;;;;;;4965921;28;20248;-76
2022/10/27 11:26:02;;;;;;;0.50;0.50;;;20.30;99.90;;;;;;4950319;28;20200;-75
2022/10/27 11:28:41;;;;;;;1.38;0.63;;;20.30;99.90;;;;;;4954465;28;20260;-76
2022/10/27 11:31:18;;;;;;;1.25;0.60;;;20.30;99.90;;;;;;4947205;28;20583;-78
2022/10/27 11:33:59;;;;;;;0.70;0.50;;;20.30;99.90;;;;;;4946220;28;20288;-72
2022/10/27 11:36:38;;;;;;;2.20;0.50;;;20.30;99.90;;;;;;4949427;28;20232;-77
2022/10/27 11:39:11;;;;;;;0.85;0.50;;;20.30;99.90;;;;;;4954201;28;20210;-79
2022/10/27 11:41:47;;;;;;;1.48;0.50;;;20.30;99.90;;;;;;4958975;28;20197;-79
2022/10/27 11:44:27;;;;;;;0.60;0.50;;;20.30;99.90;;;;;;4959464;28;20261;-78
2022/10/27 11:47:02;;;;;;;1.30;0.50;;;20.20;99.90;;;;;;4953632;28;20201;-77
2022/10/27 11:49:43;;;;;;;1.17;0.50;;;20.20;99.90;;;;;;4945076;28;20197;-77
2022/10/27 11:52:19;;;;;;;0.47;0.45;;;20.20;99.90;;;;;;4961141;28;20196;-78
2022/10/27 11:54:52;;;;;;;0.70;0.45;;;20.20;99.90;;;;;;4957436;28;20197;-79
2022/10/27 11:57:33;;;;;;;0.57;0.45;;;20.20;99.90;;;;;;4951529;28;20634;-79
2022/10/27 12:00:13;;;;;;;1.00;0.40;;;20.10;99.90;;;;;;4953501;28;20272;-76
2022/10/27 12:03:13;;;;;;;1.30;0.45;;;20.10;99.90;;;;;;4957006;28;20196;-76
2022/10/27 12:05:54;;;;;;;0.82;0.40;;;20.10;99.90;;;;;;4942298;28;20206;-76
2022/10/27 12:08:36;;;;;;;0.52;0.38;;;20.10;99.90;;;;;;4959426;28;20212;-79
2022/10/27 12:11:22;;;;;;;0.50;0.50;;;20.10;99.90;;;;;;4963190;28;20192;-78
2022/10/27 12:14:03;;;;;;;1.30;0.50;;;20.10;99.90;;;;;;4959178;28;20306;-78
2022/10/27 12:16:40;;;;;;;0.50;0.40;;;20.00;99.90;;;;;;4952697;28;20217;-79
2022/10/27 12:19:18;;;;;;;1.35;0.50;;;20.00;99.90;;;;;;4957716;28;20200;-79
2022/10/27 12:21:54;;;;;;;0.70;0.40;;;20.00;99.90;;;;;;4951390;28;20203;-76
2022/10/27 12:24:30;;;;;;;1.70;0.40;;;20.00;99.90;;;;;;4959884;28;20197;-71
2022/10/27 12:27:06;;;;;;;2.15;0.60;;;20.00;99.90;;;;;;4961402;28;20200;-77
2022/10/27 12:29:41;;;;;;;1.13;0.30;;;20.00;99.90;;;;;;4962240;28;20197;-78
2022/10/27 12:32:15;;;;;;;0.40;0.40;;;20.00;99.90;;;;;;4965796;28;20707;-74
2022/10/27 12:34:52;;;;;;;2.17;0.63;;;20.10;99.90;;;;;;4960895;28;20204;-77
2022/10/27 12:37:33;;;;;;;1.38;0.77;;;20.00;99.90;;;;;;4953940;28;20295;-76
2022/10/27 12:40:10;;;;;;;0.75;0.75;;;20.00;99.90;;;;;;4957853;28;20227;-77
2022/10/27 12:42:51;;;;;;;3.40;0.93;;;20.00;99.90;;;;;;4959391;28;20203;-78
2022/10/27 12:45:41;;;;;;;1.42;0.90;;;19.90;99.90;;;;;;4953808;28;20211;-78
2022/10/27 12:48:20;;;;;;;2.10;0.90;;;19.90;99.90;;;;;;4942182;28;20196;-77
2022/10/27 12:51:00;;;;;;;1.42;1.00;;;19.90;99.90;;;;;;4946839;28;20207;-77
2022/10/27 12:53:41;;;;;;;2.47;0.90;;;19.90;99.90;;;;;;4953141;28;20199;-78
2022/10/27 12:56:26;;;;;;;2.03;1.00;;;19.90;99.90;;;;;;4953361;28;20193;-77
2022/10/27 12:59:06;;;;;;;1.90;0.90;;;19.90;99.90;;;;;;4950073;28;20582;-74
2022/10/27 13:01:45;;;;;;;2.05;0.80;;;19.90;99.90;;;;;;4953738;28;20585;-76
2022/10/27 13:05:03;;;;;;;3.38;0.93;;;19.90;99.90;;;;;;4945888;28;20560;-77
2022/10/27 13:08:10;;;;;;;1.05;0.70;;;19.80;99.90;;;;;;4863591;29;20224;-77
2022/10/27 13:11:15;;;;;;;1.95;0.90;;;19.80;99.90;;;;;;4956339;28;20197;-77
2022/10/27 13:14:23;;;;;;;1.20;0.77;;;19.80;99.90;;;;;;4950783;28;20665;-78
2022/10/27 13:17:04;;;;;;;1.98;0.80;;;19.70;99.90;;;;;;4944411;28;20233;-78
2022/10/27 13:19:42;;;;;;;2.60;0.90;;;19.70;99.90;;;;;;4949614;28;20203;-78
2022/10/27 13:22:20;;;;;;;2.40;0.90;;;19.60;99.90;;;;;;4947000;28;20260;-78
2022/10/27 13:24:58;;;;;;;1.10;0.75;;;19.60;99.90;;;;;;4946528;28;20236;-78
2022/10/27 13:27:38;;;;;;;1.55;0.80;;;19.70;99.90;;;;;;4954411;28;20207;-76
2022/10/27 13:30:17;;;;;;;1.15;0.90;;;19.60;99.90;;;;;;4960630;28;21709;-79